Ghayl Ba Wazir, Yemen
Current Conditions -  °F | °C
As of 7:00 AM on Wednesday 26 Nov 2014 (Local Time) from OYRN Reporting Station
Broken Clouds Broken Clouds  
Wind Chill: 81°   Ceiling: 2000
Heat Index: 83°   Visibility: 6mi
Dew Point: 68°   Wind: 6mph
Humidity: 65%   Direction: 50°NE
Pressure: 29.94"   Gusts: NA
Location:  14.77°N, 49.37°E
Report Text: OYRN 260400Z 05005KT 9999 FEW018TCU BKN020 27/20 Q1014 RMK MINTIMP IS 24.9
Loading
Personal Weather Stations






























Interactive Weather Map New forecast layout! Learn more

10-Day Weather Forecast

Advertisements
Track Severe Weather on mobile